createdAt,value
2018-05-18T00:00:56.801Z,13.40
2018-05-18T00:03:25.071Z,13.30
2018-05-18T00:05:53.333Z,13.40
2018-05-18T00:08:22.397Z,13.40
2018-05-18T00:10:50.676Z,13.40
2018-05-18T00:13:18.935Z,13.50
2018-05-18T00:15:47.228Z,13.50
2018-05-18T00:18:15.475Z,13.40
2018-05-18T00:20:43.755Z,13.60
2018-05-18T00:23:12.015Z,13.70
2018-05-18T00:25:40.292Z,13.50
2018-05-18T00:28:08.566Z,13.20
2018-05-18T00:30:36.883Z,13.20
2018-05-18T00:33:05.173Z,13.20
2018-05-18T00:35:33.438Z,13.20
2018-05-18T00:38:01.714Z,13.30
2018-05-18T00:40:29.981Z,13.10
2018-05-18T00:42:58.273Z,13.10
2018-05-18T00:45:26.538Z,12.90
2018-05-18T00:47:54.804Z,12.90
2018-05-18T00:50:23.092Z,12.80
2018-05-18T00:52:51.812Z,12.80
2018-05-18T00:55:32.579Z,12.50
2018-05-18T00:58:00.869Z,12.50
2018-05-18T01:00:29.134Z,12.70
2018-05-18T01:02:57.412Z,12.50
2018-05-18T01:05:25.676Z,12.50
2018-05-18T01:07:53.961Z,12.50
2018-05-18T01:10:22.221Z,12.50
2018-05-18T01:12:51.255Z,12.40
2018-05-18T01:15:19.511Z,12.40
2018-05-18T01:17:47.797Z,12.40
2018-05-18T01:20:16.071Z,12.50
2018-05-18T01:22:44.356Z,12.70
2018-05-18T01:25:12.620Z,12.80
2018-05-18T01:27:40.898Z,12.90
2018-05-18T01:30:09.157Z,12.80
2018-05-18T01:32:37.436Z,12.90
2018-05-18T01:35:05.716Z,12.80
2018-05-18T01:37:33.977Z,12.80
2018-05-18T01:40:02.234Z,12.90
2018-05-18T01:42:31.271Z,12.80
2018-05-18T01:44:59.534Z,12.70
2018-05-18T01:47:27.794Z,12.80
2018-05-18T01:49:56.040Z,12.80
2018-05-18T01:52:25.083Z,12.70
2018-05-18T01:54:53.360Z,12.70
2018-05-18T01:57:21.608Z,12.50
2018-05-18T01:59:49.879Z,12.50
2018-05-18T02:02:18.957Z,12.70
2018-05-18T02:04:47.989Z,12.80
2018-05-18T02:07:16.243Z,12.80
2018-05-18T02:09:44.521Z,12.90
2018-05-18T02:12:13.558Z,12.80
2018-05-18T02:14:41.830Z,12.80
2018-05-18T02:17:10.087Z,12.80
2018-05-18T02:19:38.416Z,12.70
2018-05-18T02:22:06.678Z,12.80
2018-05-18T02:24:34.967Z,12.60
2018-05-18T02:27:03.978Z,12.50
2018-05-18T02:29:32.247Z,12.50
2018-05-18T02:32:01.267Z,12.50
2018-05-18T02:34:29.564Z,12.50
2018-05-18T02:36:57.796Z,12.60
2018-05-18T02:39:26.064Z,12.60
2018-05-18T02:41:54.345Z,12.60
2018-05-18T02:44:23.387Z,12.50
2018-05-18T02:46:51.672Z,12.50
2018-05-18T02:49:19.908Z,12.50
2018-05-18T02:51:48.167Z,12.50
2018-05-18T02:54:16.433Z,12.50
2018-05-18T02:56:45.477Z,12.30
2018-05-18T02:59:13.724Z,12.20
2018-05-18T03:01:41.992Z,12.10
2018-05-18T03:04:10.273Z,12.20
2018-05-18T03:06:38.522Z,12.20
2018-05-18T03:09:07.550Z,12.00
2018-05-18T03:11:35.815Z,12.00
2018-05-18T03:14:04.068Z,12.00
2018-05-18T03:16:32.348Z,12.10
2018-05-18T03:19:01.365Z,12.00
2018-05-18T03:21:29.635Z,12.00
2018-05-18T03:23:57.891Z,12.00
2018-05-18T03:26:26.911Z,11.80
2018-05-18T03:28:55.155Z,11.80
2018-05-18T03:31:24.204Z,11.60
2018-05-18T03:33:52.455Z,11.60
2018-05-18T03:36:20.719Z,11.70
2018-05-18T03:38:48.974Z,11.70
2018-05-18T03:41:18.018Z,11.70
2018-05-18T03:43:46.271Z,11.60
2018-05-18T03:46:14.539Z,11.50
2018-05-18T03:48:42.791Z,11.50
2018-05-18T03:51:11.066Z,11.50
2018-05-18T03:53:40.087Z,11.60
2018-05-18T03:56:08.356Z,11.60
2018-05-18T03:58:36.657Z,11.60
2018-05-18T04:01:05.108Z,11.70
2018-05-18T04:03:45.115Z,11.80
2018-05-18T04:06:25.263Z,11.90
2018-05-18T04:08:53.540Z,11.90
2018-05-18T04:11:21.779Z,11.90
2018-05-18T04:13:50.022Z,11.90
2018-05-18T04:16:18.291Z,11.90
2018-05-18T04:18:47.324Z,11.90
2018-05-18T04:21:15.587Z,11.80
2018-05-18T04:23:43.842Z,12.00
2018-05-18T04:26:12.104Z,11.90
2018-05-18T04:28:41.128Z,11.60
2018-05-18T04:31:09.395Z,11.50
2018-05-18T04:33:37.644Z,11.70
2018-05-18T04:36:06.663Z,11.90
2018-05-18T04:38:34.918Z,11.90
2018-05-18T04:41:03.953Z,11.90
2018-05-18T04:43:32.215Z,11.90
2018-05-18T04:46:00.468Z,11.90
2018-05-18T04:48:28.747Z,11.90
2018-05-18T04:50:57.057Z,11.80
2018-05-18T04:53:25.295Z,11.80
2018-05-18T04:55:53.554Z,11.90
2018-05-18T04:58:22.623Z,12.00
2018-05-18T05:00:50.879Z,12.00
2018-05-18T05:03:19.155Z,11.90
2018-05-18T05:05:47.427Z,12.00
2018-05-18T05:08:15.675Z,12.10
2018-05-18T05:10:43.955Z,12.20
2018-05-18T05:13:12.231Z,12.20
2018-05-18T05:15:40.488Z,12.30
2018-05-18T05:18:08.763Z,12.40
2018-05-18T05:20:37.020Z,12.40
2018-05-18T05:23:06.072Z,12.50
2018-05-18T05:25:34.319Z,12.50
2018-05-18T05:28:02.592Z,12.60
2018-05-18T05:30:30.929Z,12.60
2018-05-18T05:32:59.132Z,12.60
2018-05-18T05:35:28.146Z,12.80
2018-05-18T05:37:56.415Z,12.80
2018-05-18T05:40:24.671Z,12.90
2018-05-18T05:42:52.934Z,13.00
2018-05-18T05:45:21.975Z,13.10
2018-05-18T05:47:50.235Z,13.10
2018-05-18T05:50:18.498Z,13.20
2018-05-18T05:52:46.786Z,13.20
2018-05-18T05:55:15.057Z,13.20
2018-05-18T05:57:43.311Z,13.30
2018-05-18T06:00:12.371Z,13.40
2018-05-18T06:02:40.678Z,13.30
2018-05-18T06:05:09.691Z,13.50
2018-05-18T06:07:38.000Z,13.50
2018-05-18T06:10:06.249Z,13.60
2018-05-18T06:12:34.517Z,13.60
2018-05-18T06:15:02.817Z,13.60
2018-05-18T06:17:31.099Z,13.70
2018-05-18T06:19:59.354Z,13.60
2018-05-18T06:22:27.639Z,13.50
2018-05-18T06:24:55.927Z,13.70
2018-05-18T06:27:24.234Z,13.80
2018-05-18T06:29:52.501Z,13.90
2018-05-18T06:32:20.757Z,13.90
2018-05-18T06:34:49.052Z,14.00
2018-05-18T06:37:17.325Z,14.10
2018-05-18T06:39:45.646Z,14.10
2018-05-18T06:42:14.898Z,14.10
2018-05-18T06:44:43.164Z,14.40
2018-05-18T06:47:11.494Z,14.40
2018-05-18T06:49:39.763Z,14.60
2018-05-18T06:52:08.044Z,14.70
2018-05-18T06:54:36.305Z,14.90
2018-05-18T06:57:05.334Z,15.20
2018-05-18T06:59:33.614Z,15.20
2018-05-18T07:02:01.894Z,15.40
2018-05-18T07:04:30.155Z,15.50
2018-05-18T07:06:58.427Z,15.70
2018-05-18T07:09:26.698Z,15.90
2018-05-18T07:11:54.983Z,16.00
2018-05-18T07:14:23.239Z,16.10
2018-05-18T07:16:51.518Z,16.30
2018-05-18T07:19:19.781Z,16.30
2018-05-18T07:21:48.076Z,16.20
2018-05-18T07:24:16.314Z,16.30
2018-05-18T07:26:45.339Z,16.70
2018-05-18T07:29:13.615Z,16.60
2018-05-18T07:31:41.874Z,16.70
2018-05-18T07:34:10.156Z,16.80
2018-05-18T07:36:38.419Z,16.80
2018-05-18T07:39:06.671Z,16.90
2018-05-18T07:42:00.085Z,16.90
2018-05-18T07:44:29.126Z,17.00
2018-05-18T07:46:58.152Z,16.90
2018-05-18T07:49:26.434Z,16.90
2018-05-18T07:51:55.461Z,17.20
2018-05-18T07:54:23.747Z,17.10
2018-05-18T07:56:52.004Z,17.20
2018-05-18T07:59:20.283Z,17.30
2018-05-18T08:01:48.531Z,17.50
2018-05-18T08:04:16.806Z,17.50
2018-05-18T08:06:45.063Z,17.30
2018-05-18T08:09:13.320Z,17.50
2018-05-18T08:11:42.359Z,18.00
2018-05-18T08:14:10.619Z,18.00
2018-05-18T08:16:38.887Z,18.10
2018-05-18T08:19:07.140Z,18.40
2018-05-18T08:21:36.227Z,18.60
2018-05-18T08:24:04.432Z,18.70
2018-05-18T08:26:32.715Z,18.60
2018-05-18T08:29:12.803Z,18.50
2018-05-18T08:31:41.068Z,18.50
2018-05-18T08:34:09.317Z,18.20
2018-05-18T08:36:37.599Z,18.40
2018-05-18T08:39:05.876Z,18.60
2018-05-18T08:41:34.145Z,18.80
2018-05-18T08:44:02.403Z,19.00
2018-05-18T08:46:30.661Z,18.90
2018-05-18T08:48:59.697Z,19.00
2018-05-18T08:51:27.954Z,18.90
2018-05-18T08:53:56.226Z,18.90
2018-05-18T08:56:24.489Z,19.20
2018-05-18T08:58:53.515Z,19.30
2018-05-18T09:01:21.782Z,19.30
2018-05-18T09:03:50.044Z,19.30
2018-05-18T09:06:18.317Z,19.40
2018-05-18T09:08:46.589Z,19.60
2018-05-18T09:11:14.864Z,19.80
2018-05-18T09:13:43.119Z,19.70
2018-05-18T09:16:12.159Z,19.30
2018-05-18T09:18:40.427Z,19.20
2018-05-18T09:21:08.706Z,19.10
2018-05-18T09:23:36.968Z,19.10
2018-05-18T09:26:05.243Z,19.30
2018-05-18T09:28:33.497Z,19.40
2018-05-18T09:31:02.520Z,19.20
2018-05-18T09:33:30.789Z,19.20
2018-05-18T09:36:02.462Z,19.20
2018-05-18T09:38:30.748Z,19.20
2018-05-18T09:40:59.579Z,19.40
2018-05-18T09:43:28.620Z,19.60
2018-05-18T09:45:56.866Z,19.60
2018-05-18T09:48:25.143Z,20.00
2018-05-18T09:50:53.416Z,20.20
2018-05-18T09:53:21.687Z,20.20
2018-05-18T09:55:50.683Z,20.10
2018-05-18T09:58:18.967Z,20.10
2018-05-18T10:00:47.231Z,20.00
2018-05-18T10:03:16.243Z,20.10
2018-05-18T10:05:44.516Z,20.10
2018-05-18T10:08:12.772Z,19.80
2018-05-18T10:10:41.823Z,19.80
2018-05-18T10:13:10.092Z,19.80
2018-05-18T10:15:38.345Z,19.90
2018-05-18T10:18:06.616Z,19.50
2018-05-18T10:20:35.657Z,19.70
2018-05-18T10:23:03.931Z,19.80
2018-05-18T10:25:32.207Z,19.70
2018-05-18T10:28:00.505Z,19.90
2018-05-18T10:30:31.372Z,20.40
2018-05-18T10:32:59.647Z,20.30
2018-05-18T10:35:29.697Z,20.50
2018-05-18T10:38:02.773Z,20.40
2018-05-18T10:40:32.079Z,20.40
2018-05-18T10:43:00.428Z,20.50
2018-05-18T10:45:29.682Z,20.80
2018-05-18T10:47:58.016Z,21.20
2018-05-18T10:50:26.308Z,20.70
2018-05-18T10:52:54.569Z,20.60
2018-05-18T10:55:23.895Z,20.70
2018-05-18T10:57:52.195Z,20.70
2018-05-18T11:00:21.861Z,21.00
2018-05-18T11:02:50.703Z,21.10
2018-05-18T11:05:20.025Z,21.20
2018-05-18T11:07:48.222Z,21.10
2018-05-18T11:10:16.532Z,21.40
2018-05-18T11:12:44.804Z,21.60
2018-05-18T11:15:14.644Z,21.50
2018-05-18T11:17:42.936Z,21.50
2018-05-18T11:20:11.268Z,21.60
2018-05-18T11:22:40.222Z,21.80
2018-05-18T11:25:08.487Z,21.80
2018-05-18T11:27:36.846Z,21.90
2018-05-18T11:30:05.107Z,21.80
2018-05-18T11:32:33.409Z,21.80
2018-05-18T11:35:03.322Z,21.70
2018-05-18T11:37:31.840Z,21.50
2018-05-18T11:40:00.117Z,21.50
2018-05-18T11:42:28.387Z,21.30
2018-05-18T11:44:58.013Z,21.40
2018-05-18T11:47:27.090Z,21.20
2018-05-18T11:49:55.370Z,21.20
2018-05-18T11:52:23.731Z,21.20
2018-05-18T11:54:52.026Z,21.50
2018-05-18T11:57:20.297Z,21.70
2018-05-18T11:59:48.592Z,22.00
2018-05-18T12:02:16.906Z,22.00
2018-05-18T12:04:45.189Z,21.90
2018-05-18T12:07:13.448Z,22.00
2018-05-18T12:09:41.755Z,22.10
2018-05-18T12:12:10.037Z,21.90
2018-05-18T12:14:38.303Z,21.60
2018-05-18T12:17:06.629Z,21.70
2018-05-18T12:19:35.651Z,21.50
2018-05-18T12:22:03.942Z,21.50
2018-05-18T12:24:32.243Z,21.40
2018-05-18T12:27:00.511Z,21.40
2018-05-18T12:29:28.789Z,21.80
2018-05-18T12:31:57.042Z,22.10
2018-05-18T12:34:25.324Z,22.40
2018-05-18T12:36:53.591Z,22.40
2018-05-18T12:39:21.877Z,22.60
2018-05-18T12:41:50.291Z,22.80
2018-05-18T12:44:18.832Z,23.10
2018-05-18T12:46:47.069Z,22.90
2018-05-18T12:49:15.358Z,22.50
2018-05-18T12:51:43.632Z,22.60
2018-05-18T12:54:11.898Z,22.00
2018-05-18T12:56:42.356Z,21.80
2018-05-18T12:59:10.618Z,22.00
2018-05-18T13:01:38.880Z,22.10
2018-05-18T13:04:07.175Z,22.00
2018-05-18T13:06:35.452Z,21.70
2018-05-18T13:09:03.712Z,21.80
2018-05-18T13:11:32.312Z,22.00
2018-05-18T13:14:00.585Z,22.30
2018-05-18T13:16:28.844Z,22.40
2018-05-18T13:18:57.118Z,22.60
2018-05-18T13:21:25.373Z,22.60
2018-05-18T13:23:54.412Z,22.30
2018-05-18T13:26:22.672Z,22.30
2018-05-18T13:28:50.952Z,22.40
2018-05-18T13:31:19.231Z,22.60
2018-05-18T13:33:47.822Z,23.00
2018-05-18T13:36:16.075Z,22.80
2018-05-18T13:38:44.488Z,22.70
2018-05-18T13:41:14.499Z,22.80
2018-05-18T13:43:42.780Z,22.70
2018-05-18T13:46:11.028Z,22.90
2018-05-18T13:48:39.310Z,22.80
2018-05-18T13:51:07.560Z,22.80
2018-05-18T13:53:35.803Z,22.50
2018-05-18T13:56:04.979Z,22.10
2018-05-18T13:58:33.236Z,22.10
2018-05-18T14:01:01.523Z,22.10
2018-05-18T14:03:29.794Z,21.80
2018-05-18T14:05:58.072Z,21.90
2018-05-18T14:08:26.355Z,21.80
2018-05-18T14:10:54.603Z,21.80
2018-05-18T14:13:22.851Z,21.60
2018-05-18T14:15:51.124Z,21.70
2018-05-18T14:18:19.380Z,21.90
2018-05-18T14:20:48.516Z,22.00
2018-05-18T14:23:16.729Z,22.00
2018-05-18T14:25:44.961Z,21.80
2018-05-18T14:28:13.229Z,21.70
2018-05-18T14:30:41.482Z,21.80
2018-05-18T14:33:10.499Z,21.80
2018-05-18T14:35:38.770Z,21.80
2018-05-18T14:38:07.111Z,21.60
2018-05-18T14:40:35.319Z,21.60
2018-05-18T14:43:03.587Z,21.70
2018-05-18T14:45:32.601Z,22.20
2018-05-18T14:48:01.643Z,22.20
2018-05-18T14:50:29.918Z,22.20
2018-05-18T14:52:58.760Z,22.20
2018-05-18T14:55:27.049Z,22.20
2018-05-18T14:57:55.287Z,21.90
2018-05-18T15:00:23.710Z,21.60
2018-05-18T15:02:51.962Z,21.50
2018-05-18T15:05:20.260Z,21.40
2018-05-18T15:07:48.664Z,21.50
2018-05-18T15:10:18.439Z,21.50
2018-05-18T15:12:46.714Z,21.50
2018-05-18T15:15:15.284Z,21.70
2018-05-18T15:17:43.532Z,21.60
2018-05-18T15:20:11.809Z,21.60
2018-05-18T15:22:40.085Z,21.40
2018-05-18T15:25:09.106Z,21.40
2018-05-18T15:27:37.770Z,21.40
2018-05-18T15:30:06.041Z,21.30
2018-05-18T15:32:34.284Z,21.20
2018-05-18T15:35:03.836Z,21.10
2018-05-18T15:37:32.092Z,21.10
2018-05-18T15:40:00.343Z,21.20
2018-05-18T15:42:29.390Z,21.20
2018-05-18T15:44:57.643Z,21.20
2018-05-18T15:47:25.916Z,21.30
2018-05-18T15:49:54.163Z,21.40
2018-05-18T15:52:23.187Z,21.50
2018-05-18T15:54:51.536Z,21.40
2018-05-18T15:57:19.766Z,21.40
2018-05-18T15:59:48.788Z,21.50
2018-05-18T16:02:17.820Z,21.60
2018-05-18T16:04:46.086Z,21.50
2018-05-18T16:07:14.391Z,21.70
2018-05-18T16:09:42.695Z,21.50
2018-05-18T16:12:10.960Z,21.50
2018-05-18T16:14:39.211Z,21.30
2018-05-18T16:17:07.565Z,21.30
2018-05-18T16:19:35.832Z,21.50
2018-05-18T16:22:04.103Z,21.40
2018-05-18T16:24:33.126Z,21.50
2018-05-18T16:27:01.416Z,21.50
2018-05-18T16:29:29.674Z,21.50
2018-05-18T16:31:57.926Z,21.60
2018-05-18T16:34:26.338Z,21.70
2018-05-18T16:36:54.592Z,21.80
2018-05-18T16:39:22.850Z,21.90
2018-05-18T16:41:51.132Z,21.70
2018-05-18T16:44:19.500Z,21.50
2018-05-18T16:46:48.524Z,21.60
2018-05-18T16:49:16.799Z,21.50
2018-05-18T16:51:45.051Z,21.50
2018-05-18T16:54:13.313Z,21.50
2018-05-18T16:56:41.582Z,21.40
2018-05-18T16:59:10.603Z,21.20
2018-05-18T17:01:38.884Z,21.20
2018-05-18T17:04:07.157Z,21.20
2018-05-18T17:06:35.475Z,21.20
2018-05-18T17:09:05.256Z,21.30
2018-05-18T17:11:33.520Z,21.30
2018-05-18T17:14:01.981Z,21.30
2018-05-18T17:16:31.089Z,21.10
2018-05-18T17:18:59.354Z,21.10
2018-05-18T17:21:27.675Z,21.00
2018-05-18T17:23:55.988Z,21.00
2018-05-18T17:26:25.052Z,21.10
2018-05-18T17:28:53.303Z,21.10
2018-05-18T17:31:21.585Z,21.20
2018-05-18T17:33:49.847Z,21.10
2018-05-18T17:36:18.108Z,21.00
2018-05-18T17:38:46.411Z,20.80
2018-05-18T17:41:14.691Z,20.80
2018-05-18T17:43:42.951Z,20.80
2018-05-18T17:46:11.239Z,20.70
2018-05-18T17:48:41.146Z,20.80
2018-05-18T17:51:09.573Z,20.80
2018-05-18T17:53:38.611Z,20.80
2018-05-18T17:56:06.874Z,20.80
2018-05-18T17:58:35.227Z,20.80
2018-05-18T18:01:04.286Z,20.60
2018-05-18T18:03:32.571Z,20.60
2018-05-18T18:06:00.834Z,20.60
2018-05-18T18:08:29.102Z,20.60
2018-05-18T18:10:57.448Z,20.50
2018-05-18T18:13:25.713Z,20.60
2018-05-18T18:15:54.753Z,20.20
2018-05-18T18:18:24.542Z,20.10
2018-05-18T18:20:52.838Z,20.10
2018-05-18T18:23:21.236Z,20.20
2018-05-18T18:25:49.523Z,20.20
2018-05-18T18:28:17.785Z,20.20
2018-05-18T18:30:46.046Z,20.20
2018-05-18T18:33:14.360Z,20.10
2018-05-18T18:35:43.451Z,20.00
2018-05-18T18:38:12.475Z,19.90
2018-05-18T18:40:40.775Z,19.90
2018-05-18T18:43:09.036Z,19.90
2018-05-18T18:45:37.325Z,19.70
2018-05-18T18:48:05.589Z,19.70
2018-05-18T18:50:33.887Z,19.80
2018-05-18T18:53:02.146Z,19.80
2018-05-18T18:55:30.443Z,19.60
2018-05-18T18:57:58.984Z,19.60
2018-05-18T19:00:27.251Z,19.50
2018-05-18T19:02:55.536Z,19.50
2018-05-18T19:05:23.955Z,19.50
2018-05-18T19:07:52.245Z,19.50
2018-05-18T19:10:21.277Z,19.50
2018-05-18T19:12:49.554Z,19.40
2018-05-18T19:15:17.896Z,19.50
2018-05-18T19:17:46.108Z,19.40
2018-05-18T19:20:15.292Z,19.00
2018-05-18T19:22:43.551Z,18.90
2018-05-18T19:25:12.629Z,18.60
2018-05-18T19:27:40.912Z,18.60
2018-05-18T19:30:10.005Z,18.50
2018-05-18T19:32:38.295Z,18.50
2018-05-18T19:35:07.343Z,18.50
2018-05-18T19:37:35.600Z,18.50
2018-05-18T19:40:03.868Z,18.50
2018-05-18T19:42:32.205Z,18.50
2018-05-18T19:45:01.236Z,18.20
2018-05-18T19:47:29.481Z,18.20
2018-05-18T19:49:58.566Z,18.10
2018-05-18T19:52:26.767Z,18.10
2018-05-18T19:54:55.020Z,18.00
2018-05-18T19:57:24.112Z,18.20
2018-05-18T19:59:53.128Z,18.10
2018-05-18T20:02:21.393Z,18.10
2018-05-18T20:04:49.672Z,18.20
2018-05-18T20:07:17.955Z,18.10
2018-05-18T20:09:46.434Z,18.00
2018-05-18T20:12:14.748Z,18.00
2018-05-18T20:14:42.991Z,17.90
2018-05-18T20:17:11.273Z,17.70
2018-05-18T20:19:39.588Z,17.60
2018-05-18T20:22:07.814Z,17.50
2018-05-18T20:24:36.079Z,17.50
2018-05-18T20:27:04.502Z,17.50
2018-05-18T20:29:32.805Z,17.50
2018-05-18T20:32:01.837Z,17.50
2018-05-18T20:34:30.359Z,17.50
2018-05-18T20:36:58.611Z,17.50
2018-05-18T20:39:26.863Z,17.50
2018-05-18T20:41:55.276Z,17.50
2018-05-18T20:44:23.788Z,17.50
2018-05-18T20:46:52.828Z,17.50
2018-05-18T20:49:21.094Z,17.50
2018-05-18T20:51:49.379Z,17.50
2018-05-18T20:54:17.617Z,17.50
2018-05-18T20:56:45.931Z,17.50
2018-05-18T20:59:15.201Z,17.50
2018-05-18T21:01:43.799Z,17.40
2018-05-18T21:04:12.043Z,17.30
2018-05-18T21:06:41.087Z,17.20
2018-05-18T21:09:09.353Z,17.20
2018-05-18T21:11:37.598Z,16.90
2018-05-18T21:14:06.624Z,16.50
2018-05-18T21:16:34.897Z,16.50
2018-05-18T21:19:03.165Z,16.20
2018-05-18T21:21:31.427Z,16.00
2018-05-18T21:23:59.706Z,16.10
2018-05-18T21:26:27.990Z,16.10
2018-05-18T21:28:56.250Z,16.00
2018-05-18T21:31:24.522Z,16.10
2018-05-18T21:33:52.788Z,16.00
2018-05-18T21:36:21.047Z,15.80
2018-05-18T21:38:50.062Z,15.80
2018-05-18T21:41:18.330Z,15.80
2018-05-18T21:43:47.339Z,15.10
2018-05-18T21:46:15.604Z,15.10
2018-05-18T21:48:43.868Z,15.00
2018-05-18T21:51:12.886Z,15.10
2018-05-18T21:53:41.136Z,15.10
2018-05-18T21:56:10.160Z,15.20
2018-05-18T21:58:38.519Z,15.20
2018-05-18T22:01:06.768Z,15.30
2018-05-18T22:03:34.990Z,15.50
2018-05-18T22:06:03.280Z,15.70
2018-05-18T22:08:31.819Z,15.70
2018-05-18T22:11:00.432Z,15.50
2018-05-18T22:13:28.683Z,15.30
2018-05-18T22:15:56.931Z,15.10
2018-05-18T22:18:25.971Z,14.60
2018-05-18T22:20:54.230Z,14.60
2018-05-18T22:23:22.495Z,14.60
2018-05-18T22:25:50.750Z,14.60
2018-05-18T22:28:19.781Z,14.80
2018-05-18T22:30:48.033Z,14.80
2018-05-18T22:33:17.156Z,15.00
2018-05-18T22:35:45.398Z,15.00
2018-05-18T22:38:13.694Z,15.00
2018-05-18T22:40:41.969Z,14.80
2018-05-18T22:43:10.232Z,14.60
2018-05-18T22:45:38.482Z,14.30
2018-05-18T22:48:07.542Z,14.20
2018-05-18T22:50:35.825Z,14.20
2018-05-18T22:53:04.075Z,14.30
2018-05-18T22:55:32.339Z,14.40
2018-05-18T22:58:00.597Z,14.50
2018-05-18T23:00:29.772Z,14.50
2018-05-18T23:02:58.066Z,14.50
2018-05-18T23:05:26.263Z,14.50
2018-05-18T23:07:54.551Z,14.50
2018-05-18T23:10:22.814Z,14.50
2018-05-18T23:12:51.080Z,14.70
2018-05-18T23:15:19.346Z,14.60
2018-05-18T23:17:48.365Z,14.10
2018-05-18T23:20:16.623Z,14.10
2018-05-18T23:22:44.879Z,13.90
2018-05-18T23:25:13.913Z,14.10
2018-05-18T23:27:42.195Z,14.10
2018-05-18T23:30:10.453Z,13.90
2018-05-18T23:32:39.032Z,13.70
2018-05-18T23:35:07.276Z,13.60
2018-05-18T23:37:36.303Z,13.90
2018-05-18T23:40:04.572Z,13.90
2018-05-18T23:42:32.827Z,14.10
2018-05-18T23:45:01.088Z,14.20
2018-05-18T23:47:30.120Z,14.20
2018-05-18T23:49:58.384Z,14.10
2018-05-18T23:52:26.964Z,14.20
2018-05-18T23:54:55.237Z,14.30
2018-05-18T23:57:23.519Z,14.30
2018-05-18T23:59:51.802Z,14.00
